Beaumont, Kansas
Current Conditions -  °F | °C
As of 12:15 AM on Thursday 29 Jan 2015 (Local Time) from KEQA Reporting Station
Clear Clear  
Wind Chill: 55°   Ceiling: Unl
Heat Index: 55°   Visibility: 10mi
Dew Point: 32°   Wind: 10mph
Humidity: 41%   Direction: 330°NNW
Pressure: 30.01"   Gusts: NA
Location:  37.66°N, 96.53°W
Report Text: KEQA 290615Z AUTO 33009KT 10SM CLR 13/00 A3001 RMK AO2
Loading
Personal Weather Stations






























Interactive Weather Map New forecast layout! Learn more

10-Day Weather Forecast

Advertisements
Track Severe Weather on mobile